Brush, Colorado
Current Conditions -  °F | °C
As of 12:35 PM on Thursday 27 Nov 2014 (Local Time) from KFMM Reporting Station
Clear Clear  
Wind Chill: 40°   Ceiling: Unl
Heat Index: 46°   Visibility: 10mi
Dew Point: 30°   Wind: 12mph
Humidity: 55%   Direction: 280°W
Pressure: 30.12"   Gusts: NA
Location:  40.26°N, 103.62°W
Report Text: KFMM 271935Z AUTO 28010KT 10SM CLR 08/M01 A3012 RMK AO2 T00751011
Loading
Personal Weather Stations






























Interactive Weather Map New forecast layout! Learn more

10-Day Weather Forecast

Advertisements
Track Severe Weather on mobile